Time;durP1;ratioP1;P1;durP2;ratioP2;P2;SDS_P1;SDS_P2;PMS_P1;PMS_P2;Temp;Humidity;BMP_temperature;BMP_pressure;BME280_temperature;BME280_humidity;BME280_pressure;Samples;Min_cycle;Max_cycle;Signal;HPM_P1;HPM_P2
2022/04/21 00:01:13;;;;;;;5.55;3.10;;;10.70;1.00;;;;;;4842519;29;20048;-88
2022/04/21 00:03:40;;;;;;;4.35;2.20;;;10.70;6.10;;;;;;4842348;29;20117;-88
2022/04/21 00:06:07;;;;;;;5.35;2.55;;;10.70;14.80;;;;;;4842321;29;20068;-89
2022/04/21 00:08:34;;;;;;;4.45;2.78;;;10.70;31.30;;;;;;4842295;29;20417;-88
2022/04/21 00:11:01;;;;;;;5.13;2.70;;;10.70;69.40;;;;;;4842659;29;20044;-89
2022/04/21 00:13:28;;;;;;;4.93;2.55;;;10.80;87.70;;;;;;4842760;29;20054;-88
2022/04/21 00:15:55;;;;;;;7.20;2.35;;;11.00;81.80;;;;;;4842509;29;20398;-88
2022/04/21 00:18:21;;;;;;;5.75;2.22;;;11.10;76.20;;;;;;4842690;29;20058;-88
2022/04/21 00:20:48;;;;;;;1.90;1.38;;;11.10;79.60;;;;;;4842002;29;20052;-88
2022/04/21 00:23:28;;;;;;;2.28;1.50;;;11.20;57.90;;;;;;4842251;29;20054;-88
2022/04/21 00:26:00;;;;;;;4.25;2.60;;;11.30;54.50;;;;;;4842170;29;20412;-88
2022/04/21 00:28:29;;;;;;;4.67;2.90;;;11.00;85.90;;;;;;4842257;29;20118;-88
2022/04/21 00:30:57;;;;;;;4.25;2.33;;;10.80;99.50;;;;;;4812610;29;20113;-89
2022/04/21 00:33:24;;;;;;;3.70;2.60;;;10.90;99.00;;;;;;4844701;29;20057;-88
2022/04/21 00:35:51;;;;;;;4.20;1.42;;;11.00;99.80;;;;;;4842625;29;20050;-88
2022/04/21 00:38:18;;;;;;;7.57;2.72;;;11.00;97.80;;;;;;4842397;29;20077;-87
2022/04/21 00:40:45;;;;;;;3.75;2.13;;;11.00;99.90;;;;;;4843368;29;20046;-88
2022/04/21 00:43:12;;;;;;;2.60;1.58;;;11.00;99.90;;;;;;4842247;29;20042;-88
2022/04/21 00:45:39;;;;;;;2.33;1.40;;;11.10;95.20;;;;;;4843742;29;20050;-88
2022/04/21 00:48:07;;;;;;;4.93;2.47;;;11.10;94.00;;;;;;4846452;29;20046;-86
2022/04/21 00:50:38;;;;;;;4.55;2.28;;;10.80;99.90;;;;;;4845484;29;20060;-88
2022/04/21 00:53:07;;;;;;;8.93;2.90;;;10.70;99.90;;;;;;4864761;29;20056;-89
2022/04/21 00:55:37;;;;;;;9.00;3.00;;;10.80;99.90;;;;;;4864019;29;20046;-87
2022/04/21 00:58:05;;;;;;;8.57;2.55;;;10.70;99.90;;;;;;4848428;29;20148;-87
2022/04/21 01:00:32;;;;;;;4.07;2.63;;;10.70;99.90;;;;;;4861329;29;20048;-88
2022/04/21 01:03:00;;;;;;;5.07;2.60;;;10.90;99.90;;;;;;4860844;29;20042;-88
2022/04/21 01:05:29;;;;;;;5.32;2.63;;;10.80;99.90;;;;;;4861057;29;20133;-88
2022/04/21 01:08:00;;;;;;;6.38;3.08;;;10.60;99.90;;;;;;4860775;29;20504;-88
2022/04/21 01:10:29;;;;;;;6.53;2.65;;;10.60;99.90;;;;;;4845227;29;20574;-88
2022/04/21 01:12:57;;;;;;;8.02;3.10;;;10.60;99.90;;;;;;4860346;29;20057;-89
2022/04/21 01:15:24;;;;;;;7.93;3.53;;;10.60;99.90;;;;;;4862190;29;20408;-88
2022/04/21 01:17:55;;;;;;;8.70;3.17;;;10.50;99.90;;;;;;4845827;29;20083;-88
2022/04/21 01:20:23;;;;;;;4.60;2.17;;;10.40;99.90;;;;;;4860680;29;20116;-88
2022/04/21 01:22:51;;;;;;;5.45;3.15;;;10.50;99.90;;;;;;4860244;29;20060;-88
2022/04/21 01:25:19;;;;;;;4.82;2.15;;;10.60;99.90;;;;;;4860855;29;20141;-89
2022/04/21 01:27:47;;;;;;;4.00;1.80;;;10.50;99.90;;;;;;4860707;29;20042;-88
2022/04/21 01:30:14;;;;;;;5.20;3.20;;;10.70;99.90;;;;;;4861583;29;20054;-88
2022/04/21 01:32:44;;;;;;;2.88;1.42;;;10.70;99.90;;;;;;4861782;29;20065;-89
2022/04/21 01:35:11;;;;;;;4.57;2.53;;;10.70;99.90;;;;;;4863805;29;20064;-89
2022/04/21 01:43:11;;;;;;;2.38;1.20;;;10.90;99.90;;;;;;4864360;29;20052;-88
2022/04/21 01:45:39;;;;;;;2.67;1.40;;;11.00;99.90;;;;;;4864447;29;20492;-89
2022/04/21 01:48:06;;;;;;;3.50;1.50;;;11.10;99.90;;;;;;4862941;29;20534;-88
2022/04/21 01:50:33;;;;;;;5.47;3.05;;;11.10;99.90;;;;;;4847779;29;20056;-88
2022/04/21 01:53:00;;;;;;;6.32;3.00;;;10.90;99.90;;;;;;4863370;29;20053;-87
2022/04/21 01:55:28;;;;;;;8.95;3.63;;;10.70;99.90;;;;;;4863294;29;20445;-89
2022/04/21 01:57:55;;;;;;;6.55;3.00;;;10.70;99.90;;;;;;4863722;29;20053;-89
2022/04/21 02:00:22;;;;;;;3.00;1.85;;;10.80;99.90;;;;;;4847931;29;20082;-88
2022/04/21 02:02:50;;;;;;;4.07;2.40;;;10.80;99.90;;;;;;4848912;29;20042;-89
2022/04/21 02:05:17;;;;;;;3.10;2.03;;;10.90;99.90;;;;;;4863486;29;20429;-87
2022/04/21 02:07:45;;;;;;;5.03;2.83;;;10.80;99.90;;;;;;4864479;29;20038;-88
2022/04/21 02:10:13;;;;;;;8.52;3.63;;;10.80;99.90;;;;;;4864220;29;20176;-88
2022/04/21 02:12:45;;;;;;;5.25;2.65;;;10.60;99.90;;;;;;4863535;29;20053;-88
2022/04/21 02:15:13;;;;;;;6.78;3.80;;;10.70;99.90;;;;;;4847629;29;20048;-88
2022/04/21 02:17:40;;;;;;;3.30;2.20;;;10.70;99.90;;;;;;4829529;29;20110;-89
2022/04/21 02:20:09;;;;;;;3.60;2.50;;;10.70;99.90;;;;;;4845134;29;20490;-88
2022/04/21 02:22:37;;;;;;;6.97;4.07;;;10.60;99.90;;;;;;4844995;29;20061;-88
2022/04/21 02:25:06;;;;;;;8.55;3.67;;;10.30;99.90;;;;;;4829543;29;20105;-88
2022/04/21 02:27:35;;;;;;;8.10;3.70;;;10.20;99.90;;;;;;4845519;29;20084;-88
2022/04/21 02:30:09;;;;;;;6.53;2.17;;;10.10;99.90;;;;;;4844140;29;20400;-88
2022/04/21 02:32:36;;;;;;;5.50;3.35;;;10.30;99.90;;;;;;4846051;29;20098;-88
2022/04/21 02:35:04;;;;;;;3.78;2.63;;;10.30;99.90;;;;;;4844282;29;20041;-88
2022/04/21 02:37:38;;;;;;;6.32;2.97;;;10.40;99.90;;;;;;4829127;29;20057;-89
2022/04/21 02:40:07;;;;;;;6.18;3.88;;;10.50;99.90;;;;;;4829780;29;20056;-88
2022/04/21 02:42:38;;;;;;;7.63;3.55;;;10.50;99.90;;;;;;4844369;29;20050;-88
2022/04/21 02:45:10;;;;;;;11.63;4.82;;;10.30;99.90;;;;;;4843545;29;20084;-89
2022/04/21 02:47:45;;;;;;;12.23;4.28;;;10.20;99.90;;;;;;4844364;29;20054;-88
2022/04/21 02:50:17;;;;;;;5.93;3.50;;;10.20;99.90;;;;;;4843866;29;20096;-88
2022/04/21 02:52:45;;;;;;;7.37;4.33;;;10.10;99.90;;;;;;4844977;29;20480;-88
2022/04/21 02:57:59;;;;;;;7.63;4.35;;;10.00;99.90;;;;;;4862819;29;20053;-88
2022/04/21 03:00:26;;;;;;;6.35;4.13;;;10.10;99.90;;;;;;4867908;29;20136;-88
2022/04/21 03:02:53;;;;;;;7.40;4.57;;;10.10;99.90;;;;;;4849491;29;20534;-89
2022/04/21 03:05:20;;;;;;;7.85;4.10;;;10.00;99.90;;;;;;4846923;29;20086;-88
2022/04/21 03:07:47;;;;;;;5.97;4.05;;;10.00;99.90;;;;;;4862043;29;20136;-89
2022/04/21 03:10:14;;;;;;;7.82;4.00;;;10.00;99.90;;;;;;4846483;29;20051;-89
2022/04/21 03:12:41;;;;;;;11.02;4.55;;;10.00;99.90;;;;;;4862185;29;20073;-88
2022/04/21 03:15:12;;;;;;;6.55;2.17;;;9.90;99.90;;;;;;4831746;29;20053;-89
2022/04/21 03:17:40;;;;;;;4.63;2.67;;;10.20;99.90;;;;;;4828837;29;20046;-88
2022/04/21 03:20:08;;;;;;;9.70;4.78;;;10.20;99.90;;;;;;4842917;29;20042;-88
2022/04/21 03:25:21;;;;;;;6.22;4.03;;;10.20;99.90;;;;;;4843709;29;20052;-89
2022/04/21 03:27:53;;;;;;;6.53;3.33;;;10.20;99.90;;;;;;4844168;29;20107;-88
2022/04/21 03:30:20;;;;;;;6.13;3.45;;;10.20;99.90;;;;;;4843655;29;20273;-88
2022/04/21 03:32:47;;;;;;;6.90;3.47;;;10.20;99.90;;;;;;4843484;29;20081;-89
2022/04/21 03:35:15;;;;;;;4.25;2.15;;;10.20;99.90;;;;;;4843922;29;20053;-89
2022/04/21 03:37:41;;;;;;;7.72;3.80;;;10.20;99.90;;;;;;4828157;29;20511;-88
2022/04/21 03:40:09;;;;;;;7.63;4.63;;;10.10;99.90;;;;;;4827660;29;20057;-88
2022/04/21 03:42:36;;;;;;;9.27;4.13;;;10.10;99.90;;;;;;4844265;29;20069;-88
2022/04/21 03:45:03;;;;;;;4.60;2.65;;;10.00;99.90;;;;;;4828154;29;20057;-89
2022/04/21 03:47:30;;;;;;;11.82;3.90;;;10.00;99.90;;;;;;4828134;29;20567;-88
2022/04/21 03:49:57;;;;;;;5.40;3.17;;;10.00;99.90;;;;;;4845241;29;20070;-88
2022/04/21 03:52:24;;;;;;;8.55;4.85;;;9.90;99.90;;;;;;4862902;29;20073;-89
2022/04/21 03:54:51;;;;;;;7.78;4.57;;;9.90;99.90;;;;;;4846412;29;20503;-87
2022/04/21 03:57:19;;;;;;;7.22;4.68;;;9.90;99.90;;;;;;4860905;29;20038;-88
2022/04/21 03:59:46;;;;;;;9.63;5.00;;;9.80;99.90;;;;;;4862290;29;20054;-89
2022/04/21 04:02:14;;;;;;;10.85;5.38;;;9.80;99.90;;;;;;4845524;29;20057;-88
2022/04/21 04:04:41;;;;;;;9.02;4.38;;;9.70;99.90;;;;;;4845530;29;20456;-88
2022/04/21 04:12:40;;;;;;;8.68;5.13;;;9.70;99.90;;;;;;4862351;29;20077;-88
2022/04/21 04:15:08;;;;;;;8.05;4.20;;;9.60;99.90;;;;;;4845321;29;20045;-89
2022/04/21 04:17:37;;;;;;;8.88;4.80;;;9.60;99.90;;;;;;4844933;29;20054;-87
2022/04/21 04:20:05;;;;;;;7.85;5.40;;;9.60;99.90;;;;;;4860137;29;20087;-89
2022/04/21 04:22:39;;;;;;;10.90;5.15;;;9.60;99.90;;;;;;4860862;29;20068;-90
2022/04/21 04:25:09;;;;;;;8.18;4.50;;;9.60;99.90;;;;;;4861636;29;20053;-87
2022/04/21 04:27:39;;;;;;;9.05;4.70;;;9.60;99.90;;;;;;4858417;29;20046;-88
2022/04/21 04:30:08;;;;;;;6.25;3.63;;;9.50;99.90;;;;;;4857277;29;20140;-88
2022/04/21 04:32:36;;;;;;;8.48;5.10;;;9.60;99.90;;;;;;4861584;29;20050;-88
2022/04/21 04:35:04;;;;;;;8.23;4.50;;;9.70;99.90;;;;;;4862453;29;20049;-87
2022/04/21 04:37:32;;;;;;;11.82;4.82;;;9.70;99.90;;;;;;4861087;29;20057;-87
2022/04/21 04:40:00;;;;;;;7.18;3.45;;;9.60;99.90;;;;;;4862421;29;20132;-88
2022/04/21 04:42:28;;;;;;;6.20;3.80;;;9.70;99.90;;;;;;4861720;29;20049;-89
2022/04/21 04:47:42;;;;;;;8.77;4.75;;;9.80;99.90;;;;;;4861014;29;20420;-88
2022/04/21 04:50:09;;;;;;;10.07;6.03;;;9.80;99.90;;;;;;4860283;29;20568;-89
2022/04/21 04:52:37;;;;;;;9.20;5.95;;;9.80;99.90;;;;;;4861365;29;20072;-89
2022/04/21 04:55:07;;;;;;;7.80;3.53;;;9.70;99.90;;;;;;4862730;29;20389;-88
2022/04/21 04:57:34;;;;;;;16.25;6.50;;;9.80;99.90;;;;;;4867683;29;20060;-89
2022/04/21 05:00:06;;;;;;;11.70;6.55;;;9.80;99.90;;;;;;4849397;29;20488;-90
2022/04/21 05:02:33;;;;;;;9.05;4.43;;;9.80;99.90;;;;;;4866931;29;20085;-90
2022/04/21 05:05:00;;;;;;;9.75;5.47;;;9.90;99.90;;;;;;4848845;29;20369;-89
2022/04/21 05:07:27;;;;;;;12.48;6.60;;;9.80;99.90;;;;;;4862752;29;20052;-89
2022/04/21 05:09:55;;;;;;;11.60;5.80;;;9.80;99.90;;;;;;4865768;29;20045;-88
2022/04/21 05:12:22;;;;;;;12.02;6.50;;;9.80;99.90;;;;;;4865978;29;20057;-89
2022/04/21 05:14:49;;;;;;;12.82;7.18;;;9.80;99.90;;;;;;4864476;29;20399;-88
2022/04/21 05:17:16;;;;;;;14.13;7.38;;;9.70;99.90;;;;;;4833478;29;20053;-89
2022/04/21 05:19:43;;;;;;;13.85;7.60;;;9.70;99.90;;;;;;4830357;29;20569;-89
2022/04/21 05:22:13;;;;;;;12.98;8.27;;;9.70;99.90;;;;;;4845915;29;20057;-88
2022/04/21 05:24:42;;;;;;;14.35;7.43;;;9.70;99.90;;;;;;4845382;29;20557;-89
2022/04/21 05:27:10;;;;;;;10.27;6.10;;;9.80;99.90;;;;;;4845760;29;20098;-88
2022/04/21 05:32:26;;;;;;;8.73;4.53;;;9.80;99.90;;;;;;4847391;29;20165;-89
2022/04/21 05:34:54;;;;;;;14.27;6.05;;;9.90;99.90;;;;;;4845904;29;20082;-89
2022/04/21 05:37:21;;;;;;;11.45;6.65;;;9.90;99.90;;;;;;4845832;29;20409;-89
2022/04/21 05:39:49;;;;;;;13.13;6.18;;;9.90;99.90;;;;;;4815451;29;20053;-89
2022/04/21 05:42:23;;;;;;;6.40;3.90;;;9.90;99.90;;;;;;4830653;29;20103;-89
2022/04/21 05:44:52;;;;;;;8.48;5.18;;;9.90;99.90;;;;;;4846511;29;20037;-89
2022/04/21 05:47:20;;;;;;;9.10;4.00;;;9.90;99.90;;;;;;4845873;29;20098;-88
2022/04/21 05:49:48;;;;;;;9.45;5.75;;;9.90;99.90;;;;;;4860455;29;20049;-89
2022/04/21 05:52:21;;;;;;;10.25;6.25;;;10.00;99.90;;;;;;4851710;29;20055;-89
2022/04/21 05:54:49;;;;;;;;;;;10.00;99.90;;;;;;4884352;29;20049;-89
2022/04/21 05:57:16;;;;;;;9.77;5.22;;;10.00;99.90;;;;;;4884096;29;19962;-88
2022/04/21 05:59:43;;;;;;;10.88;6.13;;;10.00;99.90;;;;;;4882770;29;20491;-89
2022/04/21 06:02:10;;;;;;;12.75;5.15;;;10.10;99.90;;;;;;4881877;29;20107;-89
2022/04/21 06:04:38;;;;;;;7.65;5.75;;;10.10;99.90;;;;;;4881221;29;20077;-89
2022/04/21 06:07:05;;;;;;;12.55;6.18;;;10.20;99.90;;;;;;4866297;29;20097;-89
2022/04/21 06:09:32;;;;;;;10.30;6.10;;;10.20;99.90;;;;;;4866592;29;20384;-88
2022/04/21 06:12:02;;;;;;;12.85;6.20;;;10.30;99.90;;;;;;4865720;29;20088;-89
2022/04/21 06:14:29;;;;;;;7.82;5.03;;;10.40;99.90;;;;;;4866036;29;20048;-88
2022/04/21 06:16:56;;;;;;;12.05;5.75;;;10.50;99.90;;;;;;4852138;29;20065;-89
2022/04/21 06:19:22;;;;;;;13.88;5.95;;;10.60;99.90;;;;;;4847548;29;20575;-89
2022/04/21 06:21:49;;;;;;;11.10;6.75;;;10.60;99.90;;;;;;4864140;29;20052;-88
2022/04/21 06:24:16;;;;;;;12.60;7.13;;;10.60;99.90;;;;;;4878147;29;20045;-89
2022/04/21 06:26:43;;;;;;;11.35;6.68;;;10.50;99.90;;;;;;4862260;29;20052;-89
2022/04/21 06:29:10;;;;;;;8.93;5.30;;;10.60;99.90;;;;;;4862327;29;20052;-89
2022/04/21 06:31:38;;;;;;;11.07;5.90;;;10.70;99.90;;;;;;4861975;29;20073;-89
2022/04/21 06:34:05;;;;;;;14.32;6.75;;;10.80;99.90;;;;;;4863820;29;20061;-89
2022/04/21 06:36:33;;;;;;;11.73;6.75;;;10.90;99.90;;;;;;4863915;29;20112;-88
2022/04/21 06:39:01;;;;;;;12.45;7.35;;;11.00;99.90;;;;;;4861951;29;20086;-89
2022/04/21 06:41:29;;;;;;;13.00;6.40;;;11.00;99.90;;;;;;4863235;29;20461;-89
2022/04/21 06:49:31;;;;;;;10.02;6.05;;;11.10;99.90;;;;;;4862535;29;20053;-89
2022/04/21 06:51:58;;;;;;;8.80;5.70;;;11.00;99.90;;;;;;4862050;29;20076;-88
2022/04/21 06:54:25;;;;;;;11.55;6.80;;;11.10;99.90;;;;;;4862839;29;20500;-89
2022/04/21 06:56:53;;;;;;;12.05;6.65;;;11.00;99.90;;;;;;4863086;29;20077;-89
2022/04/21 06:59:20;;;;;;;13.55;6.00;;;11.00;99.90;;;;;;4862217;29;20444;-89
2022/04/21 07:01:46;;;;;;;12.55;7.53;;;11.10;99.90;;;;;;4847201;29;20049;-90
2022/04/21 07:04:14;;;;;;;13.32;6.80;;;11.10;99.90;;;;;;4862512;29;20049;-89
2022/04/21 07:06:41;;;;;;;13.48;6.85;;;11.00;99.90;;;;;;4862978;29;20132;-89
2022/04/21 07:09:08;;;;;;;12.27;6.40;;;10.90;99.90;;;;;;4861045;29;20515;-88
2022/04/21 07:11:38;;;;;;;10.20;7.05;;;10.90;99.90;;;;;;4862313;29;20121;-88
2022/04/21 07:14:05;;;;;;;11.73;6.88;;;10.90;99.90;;;;;;4860751;29;20586;-88
2022/04/21 07:16:33;;;;;;;9.82;6.32;;;10.90;99.90;;;;;;4851764;29;20042;-88
2022/04/21 07:19:00;;;;;;;14.40;6.53;;;10.80;99.90;;;;;;4842667;29;20472;-88
2022/04/21 07:21:27;;;;;;;7.93;5.32;;;10.90;99.90;;;;;;4842169;29;20107;-88
2022/04/21 07:23:54;;;;;;;11.38;6.50;;;10.90;99.90;;;;;;4827092;29;20045;-89
2022/04/21 07:26:21;;;;;;;12.88;6.82;;;10.90;99.90;;;;;;4827780;29;20054;-89
2022/04/21 07:28:53;;;;;;;9.77;6.70;;;10.90;99.90;;;;;;4843254;29;20518;-88
2022/04/21 07:31:20;;;;;;;9.95;6.45;;;10.90;99.90;;;;;;4841420;29;20046;-88
2022/04/21 07:33:47;;;;;;;13.13;7.18;;;10.80;99.90;;;;;;4842503;29;20109;-88
2022/04/21 07:36:15;;;;;;;11.40;5.65;;;10.80;99.90;;;;;;4842492;29;20054;-89
2022/04/21 07:38:42;;;;;;;10.82;6.53;;;10.80;99.90;;;;;;4843756;29;20049;-88
2022/04/21 07:41:09;;;;;;;18.35;7.90;;;10.90;99.90;;;;;;4843542;29;20042;-88
2022/04/21 07:43:42;;;;;;;16.73;8.52;;;10.90;99.90;;;;;;4842604;29;20501;-87
2022/04/21 07:46:09;;;;;;;12.52;7.80;;;10.80;99.90;;;;;;4843028;29;20084;-88
2022/04/21 07:51:22;;;;;;;13.80;7.63;;;10.80;99.90;;;;;;4862043;29;20092;-89
2022/04/21 07:53:49;;;;;;;16.50;8.07;;;10.90;99.90;;;;;;4846081;29;20068;-87
2022/04/21 07:56:17;;;;;;;13.65;7.03;;;11.00;99.90;;;;;;4862008;29;20048;-87
2022/04/21 07:58:44;;;;;;;14.52;7.35;;;11.00;99.90;;;;;;4845954;29;20056;-89
2022/04/21 08:01:12;;;;;;;11.02;7.35;;;11.00;99.90;;;;;;4860399;29;20046;-89
2022/04/21 08:03:41;;;;;;;14.20;6.95;;;11.00;99.90;;;;;;4861668;29;20488;-88
2022/04/21 08:06:08;;;;;;;11.93;7.72;;;11.00;99.90;;;;;;4860536;29;20056;-87
2022/04/21 08:08:35;;;;;;;12.43;8.07;;;11.00;99.90;;;;;;4845283;29;20144;-88
2022/04/21 08:11:03;;;;;;;16.30;7.18;;;11.10;99.90;;;;;;4860649;29;20038;-88
2022/04/21 08:13:30;;;;;;;11.73;6.35;;;11.20;99.90;;;;;;4860477;29;20044;-88
2022/04/21 08:15:57;;;;;;;16.95;8.55;;;11.30;99.90;;;;;;4854023;29;20462;-88
2022/04/21 08:18:25;;;;;;;13.10;7.70;;;11.40;99.90;;;;;;4843609;29;20136;-87
2022/04/21 08:20:58;;;;;;;11.95;7.45;;;11.40;99.90;;;;;;4842090;29;20121;-88
2022/04/21 08:23:42;;;;;;;15.07;7.28;;;11.30;99.90;;;;;;4842121;29;20058;-88
2022/04/21 08:34:40;;;;;;;12.40;7.60;;;11.40;99.90;;;;;;4842985;29;20497;-88
2022/04/21 08:37:07;;;;;;;14.13;7.80;;;11.30;99.90;;;;;;4842753;29;20073;-89
2022/04/21 08:39:35;;;;;;;9.82;6.18;;;11.30;99.90;;;;;;4841338;29;20054;-87
2022/04/21 08:42:10;;;;;;;10.70;6.45;;;11.40;99.90;;;;;;4841643;29;20497;-89
2022/04/21 08:44:43;;;;;;;14.77;6.78;;;11.60;99.90;;;;;;4846789;29;20074;-89
2022/04/21 08:47:14;;;;;;;15.82;6.03;;;11.60;99.90;;;;;;4845645;29;20077;-89
2022/04/21 08:49:46;;;;;;;9.57;5.60;;;11.70;99.90;;;;;;4859357;29;20094;-88
2022/04/21 08:52:16;;;;;;;14.05;6.03;;;11.70;99.90;;;;;;4864347;29;20140;-88
2022/04/21 08:54:43;;;;;;;10.27;5.68;;;11.70;99.90;;;;;;4863829;29;20064;-89
2022/04/21 08:57:10;;;;;;;12.18;5.22;;;11.80;99.90;;;;;;4865102;29;20049;-89
2022/04/21 08:59:38;;;;;;;7.28;4.80;;;11.90;99.90;;;;;;4863984;29;20054;-88
2022/04/21 09:02:05;;;;;;;9.30;5.43;;;11.90;99.90;;;;;;4865719;29;20504;-88
2022/04/21 09:04:33;;;;;;;8.05;5.03;;;12.00;99.90;;;;;;4863875;29;20102;-88
2022/04/21 09:07:17;;;;;;;7.28;4.78;;;12.00;99.90;;;;;;4866258;29;20431;-89
2022/04/21 09:10:04;;;;;;;9.05;5.10;;;12.00;99.90;;;;;;4848263;29;20129;-89
2022/04/21 09:12:32;;;;;;;10.10;5.13;;;12.10;99.90;;;;;;4863255;29;20515;-88
2022/04/21 09:15:04;;;;;;;6.25;4.13;;;12.10;99.90;;;;;;4863763;29;20077;-88
2022/04/21 09:17:39;;;;;;;6.53;4.00;;;12.20;99.90;;;;;;4845858;29;20093;-88
2022/04/21 09:20:07;;;;;;;7.13;4.47;;;12.20;99.90;;;;;;4844619;29;20046;-88
2022/04/21 09:22:34;;;;;;;8.88;5.03;;;12.10;99.90;;;;;;4845781;29;20060;-89
2022/04/21 09:25:01;;;;;;;10.15;5.88;;;12.20;99.90;;;;;;4845241;29;20519;-88
2022/04/21 09:27:38;;;;;;;6.32;4.30;;;12.20;99.90;;;;;;4845167;29;20129;-89
2022/04/21 09:30:10;;;;;;;9.38;4.80;;;12.40;99.90;;;;;;4846097;29;20038;-89
2022/04/21 09:32:38;;;;;;;6.53;4.78;;;12.40;99.90;;;;;;4845722;29;20050;-88
2022/04/21 09:35:07;;;;;;;8.50;4.38;;;12.40;99.90;;;;;;4845084;29;20069;-88
2022/04/21 09:37:45;;;;;;;6.25;4.28;;;12.60;99.90;;;;;;4844963;29;20060;-89
2022/04/21 09:40:12;;;;;;;7.88;4.40;;;12.30;98.30;;;;;;4845639;29;20046;-88
2022/04/21 09:42:39;;;;;;;10.07;4.65;;;12.50;99.90;;;;;;4846037;29;20412;-88
2022/04/21 09:47:54;;;;;;;5.80;3.70;;;12.60;77.60;;;;;;4832436;29;20140;-89
2022/04/21 09:50:25;;;;;;;5.70;3.80;;;12.70;46.60;;;;;;4863883;29;20046;-89
2022/04/21 09:52:55;;;;;;;5.82;3.70;;;12.80;37.40;;;;;;4862818;29;20066;-88
2022/04/21 09:55:27;;;;;;;6.15;3.65;;;12.90;23.80;;;;;;4864111;29;20073;-89
2022/04/21 09:58:09;;;;;;;4.93;2.50;;;12.90;5.00;;;;;;4864301;29;20397;-89
2022/04/21 10:00:37;;;;;;;12.32;4.35;;;12.90;1.00;;;;;;4862758;29;20076;-88
2022/04/21 10:03:05;;;;;;;7.38;3.47;;;13.00;1.00;;;;;;4847680;29;20474;-88
2022/04/21 10:05:34;;;;;;;9.20;3.83;;;13.00;1.00;;;;;;4862627;29;20041;-89
2022/04/21 10:08:06;;;;;;;7.18;2.97;;;13.10;1.00;;;;;;4862677;29;20045;-88
2022/04/21 10:10:35;;;;;;;8.50;3.33;;;13.10;1.00;;;;;;4846686;29;20488;-89
2022/04/21 10:13:04;;;;;;;7.65;3.72;;;13.20;1.00;;;;;;4863382;29;20101;-88
2022/04/21 10:15:31;;;;;;;5.43;3.40;;;13.20;1.00;;;;;;4832082;29;20060;-88
2022/04/21 10:17:58;;;;;;;7.47;3.95;;;13.30;1.00;;;;;;4863631;29;20053;-88
2022/04/21 10:20:29;;;;;;;5.78;3.20;;;13.40;1.00;;;;;;4863553;29;20125;-88
2022/04/21 10:22:58;;;;;;;6.75;4.10;;;13.50;1.00;;;;;;4863969;29;20061;-88
2022/04/21 10:25:34;;;;;;;5.68;3.35;;;13.70;1.00;;;;;;4847130;29;20046;-89
2022/04/21 10:28:01;;;;;;;8.13;3.08;;;13.80;1.00;;;;;;4862116;29;20053;-89
2022/04/21 10:30:31;;;;;;;7.15;3.80;;;13.80;1.00;;;;;;4846527;29;20427;-89
2022/04/21 10:33:01;;;;;;;7.13;3.05;;;13.80;1.00;;;;;;4863594;29;20130;-89
2022/04/21 10:35:28;;;;;;;5.28;3.20;;;14.00;1.00;;;;;;4863241;29;20098;-88
2022/04/21 10:38:23;;;;;;;7.55;3.65;;;14.20;1.00;;;;;;4862149;29;20489;-89
2022/04/21 10:40:56;;;;;;;6.25;4.10;;;14.20;1.00;;;;;;4845117;29;20053;-89
2022/04/21 10:43:24;;;;;;;5.00;3.60;;;14.20;1.00;;;;;;4862586;29;20041;-90
2022/04/21 10:46:05;;;;;;;9.30;3.63;;;14.30;1.00;;;;;;4862815;29;20046;-89
2022/04/21 10:48:40;;;;;;;5.25;3.03;;;14.30;1.00;;;;;;4861971;29;20041;-88
2022/04/21 10:51:07;;;;;;;5.43;3.25;;;14.50;1.00;;;;;;4861557;29;20136;-89
2022/04/21 10:59:30;;;;;;;7.20;3.03;;;14.50;1.00;;;;;;4861641;29;20140;-89
2022/04/21 11:02:14;;;;;;;8.40;3.92;;;14.70;1.00;;;;;;4847550;29;20101;-88
2022/04/21 11:04:41;;;;;;;;;;;15.00;1.00;;;;;;4863936;29;20121;-89
2022/04/21 11:07:11;;;;;;;7.38;3.55;;;14.80;1.00;;;;;;4864147;29;19924;-89
2022/04/21 11:09:37;;;;;;;8.45;3.13;;;14.90;1.00;;;;;;4861432;29;20057;-89
2022/04/21 11:12:44;;;;;;;3.88;2.92;;;15.20;1.00;;;;;;4861267;29;20046;-89
2022/04/21 11:15:34;;;;;;;4.70;3.13;;;15.40;1.00;;;;;;4862676;29;20050;-89
2022/04/21 11:18:12;;;;;;;5.60;3.22;;;15.10;1.00;;;;;;4846165;29;20168;-89
2022/04/21 11:20:42;;;;;;;5.03;3.22;;;15.20;1.00;;;;;;4845484;29;20102;-89
2022/04/21 11:23:20;;;;;;;5.40;3.83;;;15.30;1.00;;;;;;4845991;29;20049;-89
2022/04/21 11:25:50;;;;;;;5.70;3.67;;;15.40;1.00;;;;;;4861351;29;20140;-89
2022/04/21 11:28:25;;;;;;;4.35;2.78;;;15.30;1.00;;;;;;4862889;29;20052;-90
2022/04/21 11:30:59;;;;;;;5.45;3.22;;;15.40;1.00;;;;;;4862240;29;20049;-89
2022/04/21 11:33:27;;;;;;;6.82;3.25;;;15.30;1.00;;;;;;4862357;29;20049;-89
2022/04/21 11:36:04;;;;;;;4.65;2.30;;;15.50;1.00;;;;;;4861182;29;20049;-89
2022/04/21 11:38:35;;;;;;;4.57;2.40;;;15.60;1.00;;;;;;4862409;29;20080;-89
2022/04/21 11:41:05;;;;;;;5.25;2.90;;;15.70;1.00;;;;;;4860763;29;20488;-89
2022/04/21 11:43:32;;;;;;;11.63;3.83;;;15.40;1.00;;;;;;4845758;29;20053;-89
2022/04/21 11:46:09;;;;;;;4.90;2.17;;;15.50;1.00;;;;;;4860736;29;20057;-90
2022/04/21 11:48:40;;;;;;;5.90;2.80;;;15.50;1.00;;;;;;4860985;29;20047;-89
2022/04/21 11:51:09;;;;;;;5.43;3.00;;;15.40;1.00;;;;;;4860663;29;20535;-89
2022/04/21 11:53:40;;;;;;;4.30;2.20;;;15.60;1.00;;;;;;4860695;29;20517;-90
2022/04/21 11:56:09;;;;;;;5.43;2.63;;;15.60;1.00;;;;;;4845572;29;20064;-88
2022/04/21 11:58:38;;;;;;;4.65;1.90;;;15.70;1.00;;;;;;4862450;29;20124;-89
2022/04/21 12:06:49;;;;;;;5.10;2.13;;;15.70;1.00;;;;;;4860863;29;20465;-88
2022/04/21 12:09:34;;;;;;;5.38;1.90;;;15.60;1.00;;;;;;4845877;29;20077;-89
2022/04/21 12:12:04;;;;;;;4.32;1.80;;;15.60;1.00;;;;;;4860940;29;20041;-88
2022/04/21 12:14:32;;;;;;;3.00;1.65;;;15.60;1.00;;;;;;4861311;29;20061;-88
2022/04/21 12:17:01;;;;;;;7.47;2.53;;;15.90;1.00;;;;;;4860866;29;20109;-89
2022/04/21 12:19:33;;;;;;;6.85;2.83;;;15.60;1.00;;;;;;4845688;29;20424;-89
2022/04/21 12:22:08;;;;;;;6.82;3.40;;;15.80;1.00;;;;;;4861213;29;20408;-89
2022/04/21 12:24:44;;;;;;;5.60;2.63;;;15.80;1.00;;;;;;4860478;29;20139;-88
2022/04/21 12:27:14;;;;;;;4.85;1.95;;;15.60;1.00;;;;;;4862220;29;20127;-89
2022/04/21 12:29:47;;;;;;;10.48;2.35;;;16.00;1.00;;;;;;4860753;29;20556;-89
2022/04/21 12:32:20;;;;;;;4.57;2.45;;;16.20;1.00;;;;;;4845294;29;20393;-88
2022/04/21 12:34:49;;;;;;;2.70;1.98;;;15.80;1.00;;;;;;4861213;29;20405;-89
2022/04/21 12:37:24;;;;;;;8.18;1.65;;;15.50;1.00;;;;;;4830469;29;20141;-89
2022/04/21 12:39:53;;;;;;;2.42;1.75;;;15.70;1.00;;;;;;4860279;29;20056;-89
2022/04/21 12:42:42;;;;;;;2.60;2.08;;;15.60;1.00;;;;;;4861665;29;20041;-88
2022/04/21 12:45:10;;;;;;;5.40;2.45;;;16.00;1.00;;;;;;4861889;29;20050;-89
2022/04/21 12:47:44;;;;;;;3.60;2.15;;;16.20;1.00;;;;;;4860550;29;20136;-87
2022/04/21 12:50:24;;;;;;;3.58;1.80;;;16.30;1.00;;;;;;4860167;29;20492;-87
2022/04/21 12:52:52;;;;;;;4.93;1.98;;;15.90;1.00;;;;;;4860211;29;20073;-88
2022/04/21 12:55:28;;;;;;;8.23;1.95;;;15.50;1.00;;;;;;4860337;29;20504;-88
2022/04/21 12:58:10;;;;;;;5.75;1.95;;;15.70;1.00;;;;;;4860400;29;20515;-89
2022/04/21 13:00:45;;;;;;;5.40;1.60;;;15.60;1.00;;;;;;4844827;29;20109;-87
2022/04/21 13:03:16;;;;;;;3.40;1.58;;;15.70;1.00;;;;;;4861192;29;20050;-90
2022/04/21 13:05:45;;;;;;;5.25;1.35;;;15.90;1.00;;;;;;4860360;29;20050;-90
2022/04/21 13:08:13;;;;;;;4.50;1.73;;;15.60;1.00;;;;;;4846362;29;20422;-89
2022/04/21 13:10:40;;;;;;;3.55;1.42;;;15.80;1.00;;;;;;4858898;29;20079;-89
2022/04/21 13:13:07;;;;;;;2.78;1.17;;;16.10;1.00;;;;;;4859953;29;20098;-90
2022/04/21 13:15:34;;;;;;;4.97;1.80;;;16.10;1.00;;;;;;4857179;29;20068;-89
2022/04/21 13:18:01;;;;;;;3.88;1.52;;;15.80;1.00;;;;;;4841935;29;20046;-88
2022/04/21 13:23:13;;;;;;;3.10;1.17;;;16.40;1.00;;;;;;4841672;29;20054;-89
2022/04/21 13:25:42;;;;;;;5.78;1.50;;;16.20;1.00;;;;;;4842854;29;20056;-88
2022/04/21 13:28:11;;;;;;;5.85;1.55;;;16.40;1.00;;;;;;4841738;29;20046;-89
2022/04/21 13:30:38;;;;;;;3.58;1.48;;;16.10;1.00;;;;;;4844626;29;20308;-89
2022/04/21 13:33:21;;;;;;;3.70;1.60;;;16.40;1.00;;;;;;4846200;29;20046;-89
2022/04/21 13:35:51;;;;;;;4.20;1.33;;;16.60;1.00;;;;;;4846307;29;20186;-89
2022/04/21 13:38:19;;;;;;;4.03;1.75;;;16.90;1.00;;;;;;4844546;29;20057;-89
2022/04/21 13:40:46;;;;;;;4.03;1.50;;;16.70;1.00;;;;;;4844480;29;20461;-90
2022/04/21 13:43:14;;;;;;;5.43;1.30;;;16.30;1.00;;;;;;4844730;29;20173;-88
2022/04/21 13:46:01;;;;;;;3.75;1.52;;;16.40;1.00;;;;;;4844966;29;20038;-89
2022/04/21 13:48:28;;;;;;;2.50;1.13;;;16.70;1.00;;;;;;4850247;29;20491;-89
2022/04/21 13:50:55;;;;;;;5.90;1.35;;;17.00;1.00;;;;;;4862793;29;20120;-89
2022/04/21 13:53:23;;;;;;;2.97;1.67;;;16.40;1.00;;;;;;4863326;29;20101;-89
2022/04/21 13:55:50;;;;;;;2.80;1.42;;;16.40;1.00;;;;;;4862149;29;20061;-90